PWSweather.com
Personal Weather Stations
Station Observations
KTXRICHA120
Richardson, TX

Richardson, TX

Lat: 32.99476242, Lon: -96.73544312

Elevation: 679

Station Type:

High Low Average
Temperature 78.4°F25.8°F 47.7°F8.7°F 61.6°F16.4°F
Dew Point 43.9°F6.6°F 32.0°F0.0°F 38.7°F3.7°F
Winds 5.4 mph -8.7 mph - Calm Calm 1.2 mph 1.9 mph
Wind Gusts 8.1 mph13.0 mph -- 1.8 mph2.9 mph
Humidity 73% 20% 46%
Pressure 29.50 in999.00 in 29.38 in994.90 in -
Precipitation 0.00 in0.00 in - -
Hour Temp Dew Point Humidity Winds Wind Gusts Pressure Precip Precip Rate Daily Precip Total
12:04 AM 53.6°F12.0°C 40.1°F4.5°C 60% 1.3 mph SW2.1 kmh SW 2.2 mph3.5 kmh 29.49 in998.6 mb 0.00 in0.0 mm 0.00 in0.0 mm 0.00 in0.0 mm
12:09 AM 53.6°F12.0°C 39.7°F4.3°C 59% 0.9 mph SW1.4 kmh SW 1.1 mph1.8 kmh 29.49 in998.6 mb 0.00 in0.0 mm 0.00 in0.0 mm 0.00 in0.0 mm
12:14 AM 53.8°F12.1°C 39.7°F4.3°C 59% Calm Calm -- 29.49 in998.6 mb 0.00 in0.0 mm 0.00 in0.0 mm 0.00 in0.0 mm
12:19 AM 53.8°F12.1°C 39.4°F4.1°C 58% 0.2 mph SW0.3 kmh SW 1.1 mph1.8 kmh 29.49 in998.6 mb 0.00 in0.0 mm 0.00 in0.0 mm 0.00 in0.0 mm
12:24 AM 53.8°F12.1°C 39.7°F4.3°C 59% 0.2 mph SW0.3 kmh SW 1.1 mph1.8 kmh 29.49 in998.6 mb 0.00 in0.0 mm 0.00 in0.0 mm 0.00 in0.0 mm
12:29 AM 53.6°F12.0°C 39.7°F4.3°C 59% 0.9 mph SW1.4 kmh SW 1.1 mph1.8 kmh 29.49 in998.6 mb 0.00 in0.0 mm 0.00 in0.0 mm 0.00 in0.0 mm
12:34 AM 53.6°F12.0°C 40.5°F4.7°C 61% Calm Calm -- 29.49 in998.6 mb 0.00 in0.0 mm 0.00 in0.0 mm 0.00 in0.0 mm
12:39 AM 53.2°F11.8°C 39.7°F4.3°C 60% 0.9 mph SW1.4 kmh SW 1.1 mph1.8 kmh 29.49 in998.6 mb 0.00 in0.0 mm 0.00 in0.0 mm 0.00 in0.0 mm
12:44 AM 52.7°F11.5°C 39.6°F4.2°C 61% 0.7 mph SW1.1 kmh SW 1.1 mph1.8 kmh 29.49 in998.6 mb 0.00 in0.0 mm 0.00 in0.0 mm 0.00 in0.0 mm
12:49 AM 52.7°F11.5°C 39.6°F4.2°C 61% 0.2 mph SW0.3 kmh SW 1.1 mph1.8 kmh 29.49 in998.6 mb 0.00 in0.0 mm 0.00 in0.0 mm 0.00 in0.0 mm
12:54 AM 52.7°F11.5°C 39.6°F4.2°C 61% Calm Calm -- 29.49 in998.6 mb 0.00 in0.0 mm 0.00 in0.0 mm 0.00 in0.0 mm
12:59 AM 52.7°F11.5°C 40.1°F4.5°C 62% 0.7 mph SW1.1 kmh SW 1.1 mph1.8 kmh 29.49 in998.6 mb 0.00 in0.0 mm 0.00 in0.0 mm 0.00 in0.0 mm
01:04 AM 52.3°F11.3°C 40.1°F4.5°C 63% 0.2 mph SW0.3 kmh SW 1.1 mph1.8 kmh 29.49 in998.6 mb 0.00 in0.0 mm 0.00 in0.0 mm 0.00 in0.0 mm
01:09 AM 52.2°F11.2°C 39.6°F4.2°C 62% 0.9 mph SW1.4 kmh SW 1.1 mph1.8 kmh 29.49 in998.6 mb 0.00 in0.0 mm 0.00 in0.0 mm 0.00 in0.0 mm
01:14 AM 52.2°F11.2°C 40.8°F4.9°C 65% 0.7 mph SW1.1 kmh SW 1.1 mph1.8 kmh 29.49 in998.6 mb 0.00 in0.0 mm 0.00 in0.0 mm 0.00 in0.0 mm
01:19 AM 52.0°F11.1°C 40.1°F4.5°C 64% 0.2 mph SW0.3 kmh SW 1.1 mph1.8 kmh 29.49 in998.6 mb 0.00 in0.0 mm 0.00 in0.0 mm 0.00 in0.0 mm
01:24 AM 52.0°F11.1°C 39.4°F4.1°C 62% 0.9 mph SW1.4 kmh SW 1.1 mph1.8 kmh 29.49 in998.6 mb 0.00 in0.0 mm 0.00 in0.0 mm 0.00 in0.0 mm
01:29 AM 51.8°F11.0°C 39.6°F4.2°C 63% 0.4 mph SW0.6 kmh SW 1.1 mph1.8 kmh 29.49 in998.6 mb 0.00 in0.0 mm 0.00 in0.0 mm 0.00 in0.0 mm
01:34 AM 52.0°F11.1°C 39.7°F4.3°C 63% 0.4 mph SW0.6 kmh SW 1.1 mph1.8 kmh 29.48 in998.3 mb 0.00 in0.0 mm 0.00 in0.0 mm 0.00 in0.0 mm
01:39 AM 52.0°F11.1°C 39.4°F4.1°C 62% 0.9 mph SW1.4 kmh SW 1.1 mph1.8 kmh 29.48 in998.3 mb 0.00 in0.0 mm 0.00 in0.0 mm 0.00 in0.0 mm
01:44 AM 52.2°F11.2°C 39.6°F4.2°C 62% 0.2 mph SW0.3 kmh SW 1.1 mph1.8 kmh 29.48 in998.3 mb 0.00 in0.0 mm 0.00 in0.0 mm 0.00 in0.0 mm
01:49 AM 52.0°F11.1°C 39.4°F4.1°C 62% Calm Calm -- 29.48 in998.3 mb 0.00 in0.0 mm 0.00 in0.0 mm 0.00 in0.0 mm
01:54 AM 51.8°F11.0°C 39.2°F4.0°C 62% 0.2 mph SW0.3 kmh SW 1.1 mph1.8 kmh 29.48 in998.3 mb 0.00 in0.0 mm 0.00 in0.0 mm 0.00 in0.0 mm
01:59 AM 51.8°F11.0°C 40.1°F4.5°C 64% 0.4 mph SW0.6 kmh SW 1.1 mph1.8 kmh 29.49 in998.6 mb 0.00 in0.0 mm 0.00 in0.0 mm 0.00 in0.0 mm
02:04 AM 50.9°F10.5°C 39.6°F4.2°C 65% 0.7 mph SW1.1 kmh SW 1.1 mph1.8 kmh 29.48 in998.3 mb 0.00 in0.0 mm 0.00 in0.0 mm 0.00 in0.0 mm
02:09 AM 51.4°F10.8°C 39.2°F4.0°C 63% 0.2 mph SW0.3 kmh SW 1.1 mph1.8 kmh 29.48 in998.3 mb 0.00 in0.0 mm 0.00 in0.0 mm 0.00 in0.0 mm
02:14 AM 51.1°F10.6°C 39.7°F4.3°C 65% 0.9 mph SW1.4 kmh SW 1.1 mph1.8 kmh 29.47 in998.0 mb 0.00 in0.0 mm 0.00 in0.0 mm 0.00 in0.0 mm
02:19 AM 50.7°F10.4°C 39.7°F4.3°C 66% 0.2 mph SW0.3 kmh SW 1.1 mph1.8 kmh 29.48 in998.3 mb 0.00 in0.0 mm 0.00 in0.0 mm 0.00 in0.0 mm
02:24 AM 51.1°F10.6°C 40.5°F4.7°C 67% 0.9 mph SW1.4 kmh SW 1.1 mph1.8 kmh 29.48 in998.3 mb 0.00 in0.0 mm 0.00 in0.0 mm 0.00 in0.0 mm
02:29 AM 51.4°F10.8°C 39.7°F4.3°C 64% 1.3 mph SW2.1 kmh SW 2.2 mph3.5 kmh 29.47 in998.0 mb 0.00 in0.0 mm 0.00 in0.0 mm 0.00 in0.0 mm
02:34 AM 51.4°F10.8°C 39.7°F4.3°C 64% 0.2 mph SW0.3 kmh SW 1.1 mph1.8 kmh 29.47 in998.0 mb 0.00 in0.0 mm 0.00 in0.0 mm 0.00 in0.0 mm
02:39 AM 51.1°F10.6°C 39.4°F4.1°C 64% 0.2 mph SW0.3 kmh SW 1.1 mph1.8 kmh 29.48 in998.3 mb 0.00 in0.0 mm 0.00 in0.0 mm 0.00 in0.0 mm
02:44 AM 50.9°F10.5°C 39.6°F4.2°C 65% 0.4 mph SW0.6 kmh SW 1.1 mph1.8 kmh 29.48 in998.3 mb 0.00 in0.0 mm 0.00 in0.0 mm 0.00 in0.0 mm
02:49 AM 51.1°F10.6°C 40.1°F4.5°C 66% 0.2 mph SW0.3 kmh SW 1.1 mph1.8 kmh 29.48 in998.3 mb 0.00 in0.0 mm 0.00 in0.0 mm 0.00 in0.0 mm
02:54 AM 51.3°F10.7°C 39.6°F4.2°C 64% 1.6 mph SW2.6 kmh SW 2.2 mph3.5 kmh 29.47 in998.0 mb 0.00 in0.0 mm 0.00 in0.0 mm 0.00 in0.0 mm
02:59 AM 51.4°F10.8°C 39.7°F4.3°C 64% 1.6 mph SW2.6 kmh SW 2.2 mph3.5 kmh 29.47 in998.0 mb 0.00 in0.0 mm 0.00 in0.0 mm 0.00 in0.0 mm
03:04 AM 51.6°F10.9°C 39.4°F4.1°C 63% 1.8 mph SW2.9 kmh SW 2.2 mph3.5 kmh 29.47 in998.0 mb 0.00 in0.0 mm 0.00 in0.0 mm 0.00 in0.0 mm
03:09 AM 51.8°F11.0°C 39.6°F4.2°C 63% 0.9 mph SW1.4 kmh SW 1.1 mph1.8 kmh 29.47 in998.0 mb 0.00 in0.0 mm 0.00 in0.0 mm 0.00 in0.0 mm
03:14 AM 51.6°F10.9°C 39.4°F4.1°C 63% 1.8 mph SW2.9 kmh SW 2.2 mph3.5 kmh 29.48 in998.3 mb 0.00 in0.0 mm 0.00 in0.0 mm 0.00 in0.0 mm
03:19 AM 51.6°F10.9°C 39.4°F4.1°C 63% 1.8 mph SW2.9 kmh SW 2.2 mph3.5 kmh 29.47 in998.0 mb 0.00 in0.0 mm 0.00 in0.0 mm 0.00 in0.0 mm
03:24 AM 51.4°F10.8°C 39.2°F4.0°C 63% 1.3 mph SW2.1 kmh SW 2.2 mph3.5 kmh 29.47 in998.0 mb 0.00 in0.0 mm 0.00 in0.0 mm 0.00 in0.0 mm
03:29 AM 51.4°F10.8°C 39.7°F4.3°C 64% 1.6 mph SW2.6 kmh SW 2.2 mph3.5 kmh 29.47 in998.0 mb 0.00 in0.0 mm 0.00 in0.0 mm 0.00 in0.0 mm
03:34 AM 51.8°F11.0°C 39.2°F4.0°C 62% 1.6 mph SW2.6 kmh SW 3.4 mph5.5 kmh 29.47 in998.0 mb 0.00 in0.0 mm 0.00 in0.0 mm 0.00 in0.0 mm
03:39 AM 51.6°F10.9°C 39.4°F4.1°C 63% 2.2 mph SW3.5 kmh SW 2.2 mph3.5 kmh 29.46 in997.6 mb 0.00 in0.0 mm 0.00 in0.0 mm 0.00 in0.0 mm
03:44 AM 51.6°F10.9°C 39.4°F4.1°C 63% 1.1 mph SW1.8 kmh SW 1.1 mph1.8 kmh 29.46 in997.6 mb 0.00 in0.0 mm 0.00 in0.0 mm 0.00 in0.0 mm
03:49 AM 51.6°F10.9°C 39.0°F3.9°C 62% 2.0 mph SW3.2 kmh SW 2.2 mph3.5 kmh 29.46 in997.6 mb 0.00 in0.0 mm 0.00 in0.0 mm 0.00 in0.0 mm
03:54 AM 51.6°F10.9°C 39.4°F4.1°C 63% 2.0 mph SW3.2 kmh SW 2.2 mph3.5 kmh 29.46 in997.6 mb 0.00 in0.0 mm 0.00 in0.0 mm 0.00 in0.0 mm
03:59 AM 51.4°F10.8°C 39.2°F4.0°C 63% 1.3 mph SW2.1 kmh SW 2.2 mph3.5 kmh 29.46 in997.6 mb 0.00 in0.0 mm 0.00 in0.0 mm 0.00 in0.0 mm
04:04 AM 51.3°F10.7°C 39.0°F3.9°C 63% 2.2 mph SW3.5 kmh SW 2.2 mph3.5 kmh 29.46 in997.6 mb 0.00 in0.0 mm 0.00 in0.0 mm 0.00 in0.0 mm
04:09 AM 51.1°F10.6°C 39.4°F4.1°C 64% 1.3 mph SW2.1 kmh SW 2.2 mph3.5 kmh 29.46 in997.6 mb 0.00 in0.0 mm 0.00 in0.0 mm 0.00 in0.0 mm
04:14 AM 51.1°F10.6°C 39.4°F4.1°C 64% 2.5 mph WSW4.0 kmh WSW 3.4 mph5.5 kmh 29.46 in997.6 mb 0.00 in0.0 mm 0.00 in0.0 mm 0.00 in0.0 mm
04:19 AM 50.9°F10.5°C 39.2°F4.0°C 64% 1.8 mph SW2.9 kmh SW 2.2 mph3.5 kmh 29.45 in997.3 mb 0.00 in0.0 mm 0.00 in0.0 mm 0.00 in0.0 mm
04:24 AM 50.9°F10.5°C 39.2°F4.0°C 64% 1.8 mph SW2.9 kmh SW 2.2 mph3.5 kmh 29.46 in997.6 mb 0.00 in0.0 mm 0.00 in0.0 mm 0.00 in0.0 mm
04:29 AM 50.7°F10.4°C 39.0°F3.9°C 64% 1.3 mph SW2.1 kmh SW 2.2 mph3.5 kmh 29.46 in997.6 mb 0.00 in0.0 mm 0.00 in0.0 mm 0.00 in0.0 mm
04:34 AM 50.4°F10.2°C 39.0°F3.9°C 65% 1.6 mph SW2.6 kmh SW 2.2 mph3.5 kmh 29.47 in998.0 mb 0.00 in0.0 mm 0.00 in0.0 mm 0.00 in0.0 mm
04:39 AM 50.5°F10.3°C 39.2°F4.0°C 65% 0.9 mph SW1.4 kmh SW 1.1 mph1.8 kmh 29.46 in997.6 mb 0.00 in0.0 mm 0.00 in0.0 mm 0.00 in0.0 mm
04:44 AM 50.4°F10.2°C 39.4°F4.1°C 66% 0.9 mph SW1.4 kmh SW 1.1 mph1.8 kmh 29.45 in997.3 mb 0.00 in0.0 mm 0.00 in0.0 mm 0.00 in0.0 mm
04:49 AM 50.0°F10.0°C 39.4°F4.1°C 67% Calm Calm -- 29.45 in997.3 mb 0.00 in0.0 mm 0.00 in0.0 mm 0.00 in0.0 mm
04:54 AM 49.6°F9.8°C 39.6°F4.2°C 68% 1.1 mph SW1.8 kmh SW 1.1 mph1.8 kmh 29.45 in997.3 mb 0.00 in0.0 mm 0.00 in0.0 mm 0.00 in0.0 mm
04:59 AM 49.3°F9.6°C 39.2°F4.0°C 68% 1.1 mph SW1.8 kmh SW 1.1 mph1.8 kmh 29.46 in997.6 mb 0.00 in0.0 mm 0.00 in0.0 mm 0.00 in0.0 mm
05:04 AM 49.1°F9.5°C 39.4°F4.1°C 69% Calm Calm -- 29.46 in997.6 mb 0.00 in0.0 mm 0.00 in0.0 mm 0.00 in0.0 mm
05:09 AM 48.7°F9.3°C 39.0°F3.9°C 69% 0.4 mph SW0.6 kmh SW 1.1 mph1.8 kmh 29.46 in997.6 mb 0.00 in0.0 mm 0.00 in0.0 mm 0.00 in0.0 mm
05:14 AM 48.4°F9.1°C 39.4°F4.1°C 71% Calm Calm -- 29.46 in997.6 mb 0.00 in0.0 mm 0.00 in0.0 mm 0.00 in0.0 mm
05:19 AM 48.2°F9.0°C 39.6°F4.2°C 72% Calm Calm -- 29.46 in997.6 mb 0.00 in0.0 mm 0.00 in0.0 mm 0.00 in0.0 mm
05:24 AM 47.8°F8.8°C 39.2°F4.0°C 72% 0.2 mph SW0.3 kmh SW 1.1 mph1.8 kmh 29.46 in997.6 mb 0.00 in0.0 mm 0.00 in0.0 mm 0.00 in0.0 mm
05:29 AM 47.7°F8.7°C 39.4°F4.1°C 73% Calm Calm -- 29.46 in997.6 mb 0.00 in0.0 mm 0.00 in0.0 mm 0.00 in0.0 mm
05:34 AM 47.7°F8.7°C 39.0°F3.9°C 72% Calm Calm -- 29.47 in998.0 mb 0.00 in0.0 mm 0.00 in0.0 mm 0.00 in0.0 mm
05:39 AM 47.8°F8.8°C 39.2°F4.0°C 72% Calm Calm -- 29.46 in997.6 mb 0.00 in0.0 mm 0.00 in0.0 mm 0.00 in0.0 mm
05:44 AM 47.8°F8.8°C 38.8°F3.8°C 71% 0.4 mph SW0.6 kmh SW 1.1 mph1.8 kmh 29.46 in997.6 mb 0.00 in0.0 mm 0.00 in0.0 mm 0.00 in0.0 mm
05:49 AM 48.6°F9.2°C 38.8°F3.8°C 69% 0.9 mph WSW1.4 kmh WSW 2.2 mph3.5 kmh 29.47 in998.0 mb 0.00 in0.0 mm 0.00 in0.0 mm 0.00 in0.0 mm
05:54 AM 48.9°F9.4°C 39.6°F4.2°C 70% 0.7 mph SW1.1 kmh SW 1.1 mph1.8 kmh 29.47 in998.0 mb 0.00 in0.0 mm 0.00 in0.0 mm 0.00 in0.0 mm
05:59 AM 49.1°F9.5°C 39.4°F4.1°C 69% 1.1 mph SW1.8 kmh SW 1.1 mph1.8 kmh 29.47 in998.0 mb 0.00 in0.0 mm 0.00 in0.0 mm 0.00 in0.0 mm
06:04 AM 49.1°F9.5°C 39.4°F4.1°C 69% 0.4 mph WSW0.6 kmh WSW 1.1 mph1.8 kmh 29.47 in998.0 mb 0.00 in0.0 mm 0.00 in0.0 mm 0.00 in0.0 mm
06:09 AM 48.9°F9.4°C 39.2°F4.0°C 69% 0.4 mph SW0.6 kmh SW 1.1 mph1.8 kmh 29.46 in997.6 mb 0.00 in0.0 mm 0.00 in0.0 mm 0.00 in0.0 mm
06:14 AM 48.9°F9.4°C 39.2°F4.0°C 69% Calm Calm -- 29.47 in998.0 mb 0.00 in0.0 mm 0.00 in0.0 mm 0.00 in0.0 mm
06:19 AM 48.7°F9.3°C 39.4°F4.1°C 70% 0.9 mph WSW1.4 kmh WSW 1.1 mph1.8 kmh 29.47 in998.0 mb 0.00 in0.0 mm 0.00 in0.0 mm 0.00 in0.0 mm
06:24 AM 48.6°F9.2°C 39.2°F4.0°C 70% 0.2 mph WSW0.3 kmh WSW 1.1 mph1.8 kmh 29.47 in998.0 mb 0.00 in0.0 mm 0.00 in0.0 mm 0.00 in0.0 mm
06:29 AM 48.7°F9.3°C 39.0°F3.9°C 69% 0.9 mph WSW1.4 kmh WSW 1.1 mph1.8 kmh 29.47 in998.0 mb 0.00 in0.0 mm 0.00 in0.0 mm 0.00 in0.0 mm
06:34 AM 48.9°F9.4°C 39.2°F4.0°C 69% 1.3 mph WSW2.1 kmh WSW 2.2 mph3.5 kmh 29.47 in998.0 mb 0.00 in0.0 mm 0.00 in0.0 mm 0.00 in0.0 mm
06:39 AM 48.9°F9.4°C 39.2°F4.0°C 69% 0.7 mph SW1.1 kmh SW 1.1 mph1.8 kmh 29.47 in998.0 mb 0.00 in0.0 mm 0.00 in0.0 mm 0.00 in0.0 mm
06:44 AM 48.9°F9.4°C 39.2°F4.0°C 69% 0.2 mph SW0.3 kmh SW 1.1 mph1.8 kmh 29.47 in998.0 mb 0.00 in0.0 mm 0.00 in0.0 mm 0.00 in0.0 mm
06:49 AM 48.9°F9.4°C 39.2°F4.0°C 69% Calm Calm -- 29.47 in998.0 mb 0.00 in0.0 mm 0.00 in0.0 mm 0.00 in0.0 mm
06:54 AM 48.7°F9.3°C 38.7°F3.7°C 68% 0.9 mph SW1.4 kmh SW 1.1 mph1.8 kmh 29.47 in998.0 mb 0.00 in0.0 mm 0.00 in0.0 mm 0.00 in0.0 mm
06:59 AM 48.7°F9.3°C 39.0°F3.9°C 69% 0.2 mph SW0.3 kmh SW 1.1 mph1.8 kmh 29.47 in998.0 mb 0.00 in0.0 mm 0.00 in0.0 mm 0.00 in0.0 mm
07:04 AM 48.6°F9.2°C 38.8°F3.8°C 69% Calm Calm -- 29.47 in998.0 mb 0.00 in0.0 mm 0.00 in0.0 mm 0.00 in0.0 mm
07:09 AM 48.6°F9.2°C 38.8°F3.8°C 69% Calm Calm -- 29.47 in998.0 mb 0.00 in0.0 mm 0.00 in0.0 mm 0.00 in0.0 mm
07:14 AM 48.4°F9.1°C 39.0°F3.9°C 70% Calm Calm -- 29.46 in997.6 mb 0.00 in0.0 mm 0.00 in0.0 mm 0.00 in0.0 mm
07:19 AM 48.2°F9.0°C 38.5°F3.6°C 69% Calm Calm -- 29.47 in998.0 mb 0.00 in0.0 mm 0.00 in0.0 mm 0.00 in0.0 mm
07:24 AM 48.4°F9.1°C 39.0°F3.9°C 70% Calm Calm -- 29.47 in998.0 mb 0.00 in0.0 mm 0.00 in0.0 mm 0.00 in0.0 mm
07:29 AM 48.6°F9.2°C 39.2°F4.0°C 70% 0.9 mph SW1.4 kmh SW 1.1 mph1.8 kmh 29.47 in998.0 mb 0.00 in0.0 mm 0.00 in0.0 mm 0.00 in0.0 mm
07:34 AM 48.7°F9.3°C 39.0°F3.9°C 69% 0.9 mph SW1.4 kmh SW 1.1 mph1.8 kmh 29.47 in998.0 mb 0.00 in0.0 mm 0.00 in0.0 mm 0.00 in0.0 mm
07:39 AM 48.9°F9.4°C 39.2°F4.0°C 69% 0.7 mph SW1.1 kmh SW 1.1 mph1.8 kmh 29.47 in998.0 mb 0.00 in0.0 mm 0.00 in0.0 mm 0.00 in0.0 mm
07:44 AM 49.1°F9.5°C 39.0°F3.9°C 68% 1.8 mph SW2.9 kmh SW 2.2 mph3.5 kmh 29.48 in998.3 mb 0.00 in0.0 mm 0.00 in0.0 mm 0.00 in0.0 mm
07:49 AM 49.3°F9.6°C 39.2°F4.0°C 68% 1.1 mph WSW1.8 kmh WSW 1.1 mph1.8 kmh 29.47 in998.0 mb 0.00 in0.0 mm 0.00 in0.0 mm 0.00 in0.0 mm
07:54 AM 49.3°F9.6°C 39.6°F4.2°C 69% 0.2 mph WSW0.3 kmh WSW 1.1 mph1.8 kmh 29.47 in998.0 mb 0.00 in0.0 mm 0.00 in0.0 mm 0.00 in0.0 mm
07:59 AM 49.3°F9.6°C 39.6°F4.2°C 69% 0.7 mph WSW1.1 kmh WSW 1.1 mph1.8 kmh 29.47 in998.0 mb 0.00 in0.0 mm 0.00 in0.0 mm 0.00 in0.0 mm
08:04 AM 49.6°F9.8°C 39.6°F4.2°C 68% 0.9 mph WSW1.4 kmh WSW 2.2 mph3.5 kmh 29.47 in998.0 mb 0.00 in0.0 mm 0.00 in0.0 mm 0.00 in0.0 mm
08:09 AM 49.8°F9.9°C 39.2°F4.0°C 67% Calm Calm -- 29.47 in998.0 mb 0.00 in0.0 mm 0.00 in0.0 mm 0.00 in0.0 mm
08:14 AM 50.7°F10.4°C 39.4°F4.1°C 65% 0.2 mph WSW0.3 kmh WSW 1.1 mph1.8 kmh 29.48 in998.3 mb 0.00 in0.0 mm 0.00 in0.0 mm 0.00 in0.0 mm
08:19 AM 51.1°F10.6°C 38.8°F3.8°C 63% 2.2 mph SW3.5 kmh SW 3.4 mph5.5 kmh 29.48 in998.3 mb 0.00 in0.0 mm 0.00 in0.0 mm 0.00 in0.0 mm
08:24 AM 51.8°F11.0°C 40.1°F4.5°C 64% 0.9 mph SW1.4 kmh SW 1.1 mph1.8 kmh 29.48 in998.3 mb 0.00 in0.0 mm 0.00 in0.0 mm 0.00 in0.0 mm
08:29 AM 52.0°F11.1°C 40.1°F4.5°C 64% 0.7 mph WSW1.1 kmh WSW 1.1 mph1.8 kmh 29.48 in998.3 mb 0.00 in0.0 mm 0.00 in0.0 mm 0.00 in0.0 mm
08:34 AM 52.0°F11.1°C 39.7°F4.3°C 63% 0.7 mph WSW1.1 kmh WSW 2.2 mph3.5 kmh 29.49 in998.6 mb 0.00 in0.0 mm 0.00 in0.0 mm 0.00 in0.0 mm
08:39 AM 52.7°F11.5°C 39.6°F4.2°C 61% 2.9 mph SW4.7 kmh SW 4.5 mph7.2 kmh 29.48 in998.3 mb 0.00 in0.0 mm 0.00 in0.0 mm 0.00 in0.0 mm
08:44 AM 53.1°F11.7°C 39.6°F4.2°C 60% 3.4 mph SW5.5 kmh SW 6.9 mph11.1 kmh 29.48 in998.3 mb 0.00 in0.0 mm 0.00 in0.0 mm 0.00 in0.0 mm
08:49 AM 53.4°F11.9°C 39.9°F4.4°C 60% 4.3 mph WSW6.9 kmh WSW 5.8 mph9.3 kmh 29.49 in998.6 mb 0.00 in0.0 mm 0.00 in0.0 mm 0.00 in0.0 mm
08:54 AM 53.8°F12.1°C 40.3°F4.6°C 60% 2.7 mph SW4.3 kmh SW 4.5 mph7.2 kmh 29.49 in998.6 mb 0.00 in0.0 mm 0.00 in0.0 mm 0.00 in0.0 mm
08:59 AM 54.0°F12.2°C 40.5°F4.7°C 60% 2.9 mph SW4.7 kmh SW 4.5 mph7.2 kmh 29.49 in998.6 mb 0.00 in0.0 mm 0.00 in0.0 mm 0.00 in0.0 mm
09:04 AM 54.3°F12.4°C 40.3°F4.6°C 59% 0.7 mph WSW1.1 kmh WSW 1.1 mph1.8 kmh 29.49 in998.6 mb 0.00 in0.0 mm 0.00 in0.0 mm 0.00 in0.0 mm
09:09 AM 54.9°F12.7°C 40.8°F4.9°C 59% 1.8 mph SW2.9 kmh SW 2.2 mph3.5 kmh 29.48 in998.3 mb 0.00 in0.0 mm 0.00 in0.0 mm 0.00 in0.0 mm
09:14 AM 55.2°F12.9°C 40.3°F4.6°C 57% 3.6 mph SSW5.8 kmh SSW 5.8 mph9.3 kmh 29.49 in998.6 mb 0.00 in0.0 mm 0.00 in0.0 mm 0.00 in0.0 mm
09:19 AM 55.8°F13.2°C 40.8°F4.9°C 57% 3.4 mph SW5.5 kmh SW 3.4 mph5.5 kmh 29.50 in999.0 mb 0.00 in0.0 mm 0.00 in0.0 mm 0.00 in0.0 mm
09:24 AM 56.3°F13.5°C 39.9°F4.4°C 54% 1.6 mph SW2.6 kmh SW 3.4 mph5.5 kmh 29.50 in999.0 mb 0.00 in0.0 mm 0.00 in0.0 mm 0.00 in0.0 mm
09:29 AM 56.8°F13.8°C 40.3°F4.6°C 54% 3.8 mph SW6.1 kmh SW 4.5 mph7.2 kmh 29.50 in999.0 mb 0.00 in0.0 mm 0.00 in0.0 mm 0.00 in0.0 mm
09:34 AM 57.6°F14.2°C 40.6°F4.8°C 53% 2.9 mph SW4.7 kmh SW 5.8 mph9.3 kmh 29.50 in999.0 mb 0.00 in0.0 mm 0.00 in0.0 mm 0.00 in0.0 mm
09:39 AM 58.5°F14.7°C 39.9°F4.4°C 50% 4.7 mph S7.6 kmh S 8.1 mph13.0 kmh 29.50 in999.0 mb 0.00 in0.0 mm 0.00 in0.0 mm 0.00 in0.0 mm
09:44 AM 58.6°F14.8°C 41.2°F5.1°C 52% 2.5 mph WSW4.0 kmh WSW 4.5 mph7.2 kmh 29.50 in999.0 mb 0.00 in0.0 mm 0.00 in0.0 mm 0.00 in0.0 mm
09:49 AM 59.0°F15.0°C 41.0°F5.0°C 51% 4.9 mph WSW7.9 kmh WSW 8.1 mph13.0 kmh 29.50 in999.0 mb 0.00 in0.0 mm 0.00 in0.0 mm 0.00 in0.0 mm
09:54 AM 59.4°F15.2°C 40.8°F4.9°C 50% 3.4 mph SW5.5 kmh SW 4.5 mph7.2 kmh 29.50 in999.0 mb 0.00 in0.0 mm 0.00 in0.0 mm 0.00 in0.0 mm
09:59 AM 59.7°F15.4°C 40.1°F4.5°C 48% 1.8 mph SW2.9 kmh SW 2.2 mph3.5 kmh 29.50 in999.0 mb 0.00 in0.0 mm 0.00 in0.0 mm 0.00 in0.0 mm
10:04 AM 60.1°F15.6°C 41.4°F5.2°C 50% 1.8 mph SW2.9 kmh SW 2.2 mph3.5 kmh 29.50 in999.0 mb 0.00 in0.0 mm 0.00 in0.0 mm 0.00 in0.0 mm
10:09 AM 60.1°F15.6°C 41.4°F5.2°C 50% 3.6 mph SW5.8 kmh SW 4.5 mph7.2 kmh 29.50 in999.0 mb 0.00 in0.0 mm 0.00 in0.0 mm 0.00 in0.0 mm
10:14 AM 60.4°F15.8°C 40.6°F4.8°C 48% 2.2 mph SW3.5 kmh SW 3.4 mph5.5 kmh 29.50 in999.0 mb 0.00 in0.0 mm 0.00 in0.0 mm 0.00 in0.0 mm
10:19 AM 61.5°F16.4°C 41.2°F5.1°C 47% 1.8 mph SW2.9 kmh SW 2.2 mph3.5 kmh 29.49 in998.6 mb 0.00 in0.0 mm 0.00 in0.0 mm 0.00 in0.0 mm
10:24 AM 62.1°F16.7°C 42.1°F5.6°C 48% 4.0 mph SW6.4 kmh SW 5.8 mph9.3 kmh 29.50 in999.0 mb 0.00 in0.0 mm 0.00 in0.0 mm 0.00 in0.0 mm
10:29 AM 62.8°F17.1°C 41.7°F5.4°C 46% 1.6 mph SW2.6 kmh SW 2.2 mph3.5 kmh 29.50 in999.0 mb 0.00 in0.0 mm 0.00 in0.0 mm 0.00 in0.0 mm
10:34 AM 62.6°F17.0°C 41.0°F5.0°C 45% 0.9 mph SSW1.4 kmh SSW 2.2 mph3.5 kmh 29.50 in999.0 mb 0.00 in0.0 mm 0.00 in0.0 mm 0.00 in0.0 mm
10:39 AM 62.8°F17.1°C 41.2°F5.1°C 45% 5.4 mph SW8.7 kmh SW 6.9 mph11.1 kmh 29.50 in999.0 mb 0.00 in0.0 mm 0.00 in0.0 mm 0.00 in0.0 mm
10:44 AM 63.5°F17.5°C 41.9°F5.5°C 45% 2.9 mph SW4.7 kmh SW 3.4 mph5.5 kmh 29.50 in999.0 mb 0.00 in0.0 mm 0.00 in0.0 mm 0.00 in0.0 mm
10:49 AM 63.5°F17.5°C 41.9°F5.5°C 45% 2.9 mph SW4.7 kmh SW 3.4 mph5.5 kmh 29.50 in999.0 mb 0.00 in0.0 mm 0.00 in0.0 mm 0.00 in0.0 mm
10:54 AM 64.4°F18.0°C 42.1°F5.6°C 44% 2.9 mph SW4.7 kmh SW 3.4 mph5.5 kmh 29.50 in999.0 mb 0.00 in0.0 mm 0.00 in0.0 mm 0.00 in0.0 mm
10:59 AM 64.9°F18.3°C 41.9°F5.5°C 43% 3.8 mph SW6.1 kmh SW 5.8 mph9.3 kmh 29.50 in999.0 mb 0.00 in0.0 mm 0.00 in0.0 mm 0.00 in0.0 mm
11:04 AM 64.9°F18.3°C 42.6°F5.9°C 44% 1.8 mph SW2.9 kmh SW 2.2 mph3.5 kmh 29.50 in999.0 mb 0.00 in0.0 mm 0.00 in0.0 mm 0.00 in0.0 mm
11:09 AM 66.4°F19.1°C 43.2°F6.2°C 43% 2.2 mph SW3.5 kmh SW 3.4 mph5.5 kmh 29.50 in999.0 mb 0.00 in0.0 mm 0.00 in0.0 mm 0.00 in0.0 mm
11:14 AM 66.4°F19.1°C 42.6°F5.9°C 42% 2.2 mph S3.5 kmh S 3.4 mph5.5 kmh 29.49 in998.6 mb 0.00 in0.0 mm 0.00 in0.0 mm 0.00 in0.0 mm
11:19 AM 66.2°F19.0°C 41.9°F5.5°C 41% 2.0 mph SW3.2 kmh SW 3.4 mph5.5 kmh 29.50 in999.0 mb 0.00 in0.0 mm 0.00 in0.0 mm 0.00 in0.0 mm
11:24 AM 66.6°F19.2°C 42.8°F6.0°C 42% 0.2 mph SE0.3 kmh SE 1.1 mph1.8 kmh 29.50 in999.0 mb 0.00 in0.0 mm 0.00 in0.0 mm 0.00 in0.0 mm
11:29 AM 66.9°F19.4°C 42.4°F5.8°C 41% 0.9 mph SW1.4 kmh SW 2.2 mph3.5 kmh 29.50 in999.0 mb 0.00 in0.0 mm 0.00 in0.0 mm 0.00 in0.0 mm
11:34 AM 68.9°F20.5°C 43.0°F6.1°C 39% 2.0 mph SW3.2 kmh SW 2.2 mph3.5 kmh 29.50 in999.0 mb 0.00 in0.0 mm 0.00 in0.0 mm 0.00 in0.0 mm
11:39 AM 67.6°F19.8°C 43.2°F6.2°C 41% 2.0 mph SW3.2 kmh SW 2.2 mph3.5 kmh 29.50 in999.0 mb 0.00 in0.0 mm 0.00 in0.0 mm 0.00 in0.0 mm
11:44 AM 67.8°F19.9°C 42.6°F5.9°C 40% 1.8 mph SW2.9 kmh SW 2.2 mph3.5 kmh 29.49 in998.6 mb 0.00 in0.0 mm 0.00 in0.0 mm 0.00 in0.0 mm
11:49 AM 68.5°F20.3°C 43.3°F6.3°C 40% 4.0 mph WSW6.4 kmh WSW 4.5 mph7.2 kmh 29.50 in999.0 mb 0.00 in0.0 mm 0.00 in0.0 mm 0.00 in0.0 mm
11:54 AM 69.1°F20.6°C 43.9°F6.6°C 40% 3.4 mph SW5.5 kmh SW 4.5 mph7.2 kmh 29.49 in998.6 mb 0.00 in0.0 mm 0.00 in0.0 mm 0.00 in0.0 mm
11:59 AM 68.9°F20.5°C 43.7°F6.5°C 40% 3.8 mph SSW6.1 kmh SSW 5.8 mph9.3 kmh 29.50 in999.0 mb 0.00 in0.0 mm 0.00 in0.0 mm 0.00 in0.0 mm
12:04 PM 69.6°F20.9°C 42.3°F5.7°C 37% 2.2 mph SW3.5 kmh SW 3.4 mph5.5 kmh 29.50 in999.0 mb 0.00 in0.0 mm 0.00 in0.0 mm 0.00 in0.0 mm
12:09 PM 70.5°F21.4°C 43.0°F6.1°C 37% Calm Calm -- 29.49 in998.6 mb 0.00 in0.0 mm 0.00 in0.0 mm 0.00 in0.0 mm
12:14 PM 72.0°F22.2°C 42.8°F6.0°C 35% 4.3 mph SW6.9 kmh SW 5.8 mph9.3 kmh 29.50 in999.0 mb 0.00 in0.0 mm 0.00 in0.0 mm 0.00 in0.0 mm
12:19 PM 70.0°F21.1°C 43.3°F6.3°C 38% 4.7 mph SW7.6 kmh SW 5.8 mph9.3 kmh 29.49 in998.6 mb 0.00 in0.0 mm 0.00 in0.0 mm 0.00 in0.0 mm
12:24 PM 70.7°F21.5°C 42.4°F5.8°C 36% 2.5 mph SW4.0 kmh SW 3.4 mph5.5 kmh 29.49 in998.6 mb 0.00 in0.0 mm 0.00 in0.0 mm 0.00 in0.0 mm
12:29 PM 70.3°F21.3°C 41.4°F5.2°C 35% 3.8 mph SW6.1 kmh SW 4.5 mph7.2 kmh 29.49 in998.6 mb 0.00 in0.0 mm 0.00 in0.0 mm 0.00 in0.0 mm
12:34 PM 69.8°F21.0°C 41.7°F5.4°C 36% 2.9 mph SW4.7 kmh SW 3.4 mph5.5 kmh 29.50 in999.0 mb 0.00 in0.0 mm 0.00 in0.0 mm 0.00 in0.0 mm
12:39 PM 71.2°F21.8°C 42.3°F5.7°C 35% 3.8 mph SW6.1 kmh SW 4.5 mph7.2 kmh 29.49 in998.6 mb 0.00 in0.0 mm 0.00 in0.0 mm 0.00 in0.0 mm
12:44 PM 71.2°F21.8°C 42.3°F5.7°C 35% 2.5 mph SW4.0 kmh SW 4.5 mph7.2 kmh 29.49 in998.6 mb 0.00 in0.0 mm 0.00 in0.0 mm 0.00 in0.0 mm
12:49 PM 71.2°F21.8°C 42.3°F5.7°C 35% 2.0 mph SW3.2 kmh SW 2.2 mph3.5 kmh 29.49 in998.6 mb 0.00 in0.0 mm 0.00 in0.0 mm 0.00 in0.0 mm
12:54 PM 72.7°F22.6°C 42.1°F5.6°C 33% 0.7 mph SSW1.1 kmh SSW 1.1 mph1.8 kmh 29.48 in998.3 mb 0.00 in0.0 mm 0.00 in0.0 mm 0.00 in0.0 mm
12:59 PM 72.7°F22.6°C 42.1°F5.6°C 33% 2.9 mph SW4.7 kmh SW 3.4 mph5.5 kmh 29.48 in998.3 mb 0.00 in0.0 mm 0.00 in0.0 mm 0.00 in0.0 mm
01:04 PM 73.0°F22.8°C 42.3°F5.7°C 33% 1.6 mph SW2.6 kmh SW 2.2 mph3.5 kmh 29.48 in998.3 mb 0.00 in0.0 mm 0.00 in0.0 mm 0.00 in0.0 mm
01:09 PM 72.3°F22.4°C 41.7°F5.4°C 33% 1.8 mph SW2.9 kmh SW 2.2 mph3.5 kmh 29.48 in998.3 mb 0.00 in0.0 mm 0.00 in0.0 mm 0.00 in0.0 mm
01:14 PM 73.8°F23.2°C 43.0°F6.1°C 33% 2.2 mph SW3.5 kmh SW 2.2 mph3.5 kmh 29.47 in998.0 mb 0.00 in0.0 mm 0.00 in0.0 mm 0.00 in0.0 mm
01:19 PM 74.7°F23.7°C 41.2°F5.1°C 30% 0.7 mph SW1.1 kmh SW 1.1 mph1.8 kmh 29.48 in998.3 mb 0.00 in0.0 mm 0.00 in0.0 mm 0.00 in0.0 mm
01:24 PM 75.0°F23.9°C 41.5°F5.3°C 30% 3.4 mph SW5.5 kmh SW 4.5 mph7.2 kmh 29.48 in998.3 mb 0.00 in0.0 mm 0.00 in0.0 mm 0.00 in0.0 mm
01:29 PM 75.0°F23.9°C 43.2°F6.2°C 32% 2.2 mph SW3.5 kmh SW 3.4 mph5.5 kmh 29.47 in998.0 mb 0.00 in0.0 mm 0.00 in0.0 mm 0.00 in0.0 mm
01:34 PM 74.8°F23.8°C 40.5°F4.7°C 29% 2.9 mph SW4.7 kmh SW 3.4 mph5.5 kmh 29.47 in998.0 mb 0.00 in0.0 mm 0.00 in0.0 mm 0.00 in0.0 mm
01:39 PM 75.6°F24.2°C 41.2°F5.1°C 29% 2.7 mph SW4.3 kmh SW 4.5 mph7.2 kmh 29.47 in998.0 mb 0.00 in0.0 mm 0.00 in0.0 mm 0.00 in0.0 mm
01:44 PM 75.6°F24.2°C 40.3°F4.6°C 28% 4.5 mph SW7.2 kmh SW 5.8 mph9.3 kmh 29.47 in998.0 mb 0.00 in0.0 mm 0.00 in0.0 mm 0.00 in0.0 mm
01:49 PM 74.8°F23.8°C 38.7°F3.7°C 27% 4.5 mph SW7.2 kmh SW 5.8 mph9.3 kmh 29.47 in998.0 mb 0.00 in0.0 mm 0.00 in0.0 mm 0.00 in0.0 mm
01:54 PM 75.6°F24.2°C 37.4°F3.0°C 25% 0.7 mph SW1.1 kmh SW 1.1 mph1.8 kmh 29.46 in997.6 mb 0.00 in0.0 mm 0.00 in0.0 mm 0.00 in0.0 mm
01:59 PM 75.6°F24.2°C 37.4°F3.0°C 25% 1.8 mph SW2.9 kmh SW 2.2 mph3.5 kmh 29.46 in997.6 mb 0.00 in0.0 mm 0.00 in0.0 mm 0.00 in0.0 mm
02:04 PM 76.5°F24.7°C 40.1°F4.5°C 27% 4.0 mph WSW6.4 kmh WSW 5.8 mph9.3 kmh 29.46 in997.6 mb 0.00 in0.0 mm 0.00 in0.0 mm 0.00 in0.0 mm
02:09 PM 75.4°F24.1°C 39.2°F4.0°C 27% 3.1 mph SW5.0 kmh SW 3.4 mph5.5 kmh 29.45 in997.3 mb 0.00 in0.0 mm 0.00 in0.0 mm 0.00 in0.0 mm
02:14 PM 75.7°F24.3°C 36.5°F2.5°C 24% 2.2 mph WSW3.5 kmh WSW 3.4 mph5.5 kmh 29.45 in997.3 mb 0.00 in0.0 mm 0.00 in0.0 mm 0.00 in0.0 mm
02:19 PM 76.1°F24.5°C 37.8°F3.2°C 25% 2.0 mph SW3.2 kmh SW 3.4 mph5.5 kmh 29.45 in997.3 mb 0.00 in0.0 mm 0.00 in0.0 mm 0.00 in0.0 mm
02:24 PM 76.6°F24.8°C 36.1°F2.3°C 23% 1.1 mph SW1.8 kmh SW 2.2 mph3.5 kmh 29.45 in997.3 mb 0.00 in0.0 mm 0.00 in0.0 mm 0.00 in0.0 mm
02:29 PM 75.4°F24.1°C 34.0°F1.1°C 22% 4.0 mph SW6.4 kmh SW 4.5 mph7.2 kmh 29.45 in997.3 mb 0.00 in0.0 mm 0.00 in0.0 mm 0.00 in0.0 mm
02:34 PM 76.5°F24.7°C 37.0°F2.8°C 24% 3.1 mph WSW5.0 kmh WSW 4.5 mph7.2 kmh 29.45 in997.3 mb 0.00 in0.0 mm 0.00 in0.0 mm 0.00 in0.0 mm
02:39 PM 76.1°F24.5°C 34.5°F1.4°C 22% 4.0 mph W6.4 kmh W 8.1 mph13.0 kmh 29.45 in997.3 mb 0.00 in0.0 mm 0.00 in0.0 mm 0.00 in0.0 mm
02:44 PM 76.5°F24.7°C 33.8°F1.0°C 21% 2.0 mph WSW3.2 kmh WSW 3.4 mph5.5 kmh 29.44 in997.0 mb 0.00 in0.0 mm 0.00 in0.0 mm 0.00 in0.0 mm
02:49 PM 76.5°F24.7°C 38.1°F3.4°C 25% 3.6 mph SW5.8 kmh SW 5.8 mph9.3 kmh 29.44 in997.0 mb 0.00 in0.0 mm 0.00 in0.0 mm 0.00 in0.0 mm
02:54 PM 77.4°F25.2°C 36.7°F2.6°C 23% 2.5 mph SW4.0 kmh SW 3.4 mph5.5 kmh 29.44 in997.0 mb 0.00 in0.0 mm 0.00 in0.0 mm 0.00 in0.0 mm
02:59 PM 77.7°F25.4°C 36.0°F2.2°C 22% 3.8 mph SW6.1 kmh SW 4.5 mph7.2 kmh 29.43 in996.6 mb 0.00 in0.0 mm 0.00 in0.0 mm 0.00 in0.0 mm
03:04 PM 77.2°F25.1°C 35.4°F1.9°C 22% 3.4 mph SSW5.5 kmh SSW 4.5 mph7.2 kmh 29.44 in997.0 mb 0.00 in0.0 mm 0.00 in0.0 mm 0.00 in0.0 mm
03:09 PM 77.4°F25.2°C 35.6°F2.0°C 22% 3.1 mph SW5.0 kmh SW 5.8 mph9.3 kmh 29.44 in997.0 mb 0.00 in0.0 mm 0.00 in0.0 mm 0.00 in0.0 mm
03:14 PM 78.4°F25.8°C 35.4°F1.9°C 21% 2.2 mph SW3.5 kmh SW 2.2 mph3.5 kmh 29.43 in996.6 mb 0.00 in0.0 mm 0.00 in0.0 mm 0.00 in0.0 mm
03:19 PM 78.3°F25.7°C 35.2°F1.8°C 21% 5.4 mph S8.7 kmh S 6.9 mph11.1 kmh 29.43 in996.6 mb 0.00 in0.0 mm 0.00 in0.0 mm 0.00 in0.0 mm
03:24 PM 77.4°F25.2°C 35.6°F2.0°C 22% 4.0 mph S6.4 kmh S 5.8 mph9.3 kmh 29.43 in996.6 mb 0.00 in0.0 mm 0.00 in0.0 mm 0.00 in0.0 mm
03:29 PM 75.9°F24.4°C 35.6°F2.0°C 23% 2.5 mph SW4.0 kmh SW 3.4 mph5.5 kmh 29.42 in996.3 mb 0.00 in0.0 mm 0.00 in0.0 mm 0.00 in0.0 mm
03:34 PM 76.8°F24.9°C 35.2°F1.8°C 22% 0.4 mph SW0.6 kmh SW 1.1 mph1.8 kmh 29.42 in996.3 mb 0.00 in0.0 mm 0.00 in0.0 mm 0.00 in0.0 mm
03:39 PM 75.2°F24.0°C 34.9°F1.6°C 23% 2.5 mph SW4.0 kmh SW 4.5 mph7.2 kmh 29.43 in996.6 mb 0.00 in0.0 mm 0.00 in0.0 mm 0.00 in0.0 mm
03:44 PM 75.2°F24.0°C 37.0°F2.8°C 25% 1.8 mph SW2.9 kmh SW 3.4 mph5.5 kmh 29.42 in996.3 mb 0.00 in0.0 mm 0.00 in0.0 mm 0.00 in0.0 mm
03:49 PM 76.5°F24.7°C 36.0°F2.2°C 23% 3.4 mph WSW5.5 kmh WSW 4.5 mph7.2 kmh 29.41 in995.9 mb 0.00 in0.0 mm 0.00 in0.0 mm 0.00 in0.0 mm
03:54 PM 76.6°F24.8°C 36.1°F2.3°C 23% 0.9 mph SW1.4 kmh SW 1.1 mph1.8 kmh 29.42 in996.3 mb 0.00 in0.0 mm 0.00 in0.0 mm 0.00 in0.0 mm
03:59 PM 77.4°F25.2°C 35.6°F2.0°C 22% 2.2 mph WNW3.5 kmh WNW 3.4 mph5.5 kmh 29.42 in996.3 mb 0.00 in0.0 mm 0.00 in0.0 mm 0.00 in0.0 mm
04:04 PM 76.3°F24.6°C 32.4°F0.2°C 20% 0.2 mph SW0.3 kmh SW 1.1 mph1.8 kmh 29.41 in995.9 mb 0.00 in0.0 mm 0.00 in0.0 mm 0.00 in0.0 mm
04:09 PM 77.5°F25.3°C 36.9°F2.7°C 23% 2.2 mph SW3.5 kmh SW 2.2 mph3.5 kmh 29.41 in995.9 mb 0.00 in0.0 mm 0.00 in0.0 mm 0.00 in0.0 mm
04:14 PM 77.9°F25.5°C 34.9°F1.6°C 21% 1.6 mph WSW2.6 kmh WSW 2.2 mph3.5 kmh 29.41 in995.9 mb 0.00 in0.0 mm 0.00 in0.0 mm 0.00 in0.0 mm
04:19 PM 77.9°F25.5°C 36.1°F2.3°C 22% 3.4 mph SW5.5 kmh SW 3.4 mph5.5 kmh 29.40 in995.6 mb 0.00 in0.0 mm 0.00 in0.0 mm 0.00 in0.0 mm
04:24 PM 76.8°F24.9°C 36.3°F2.4°C 23% 1.8 mph SW2.9 kmh SW 2.2 mph3.5 kmh 29.41 in995.9 mb 0.00 in0.0 mm 0.00 in0.0 mm 0.00 in0.0 mm
04:29 PM 77.7°F25.4°C 34.7°F1.5°C 21% Calm Calm -- 29.40 in995.6 mb 0.00 in0.0 mm 0.00 in0.0 mm 0.00 in0.0 mm
04:34 PM 76.3°F24.6°C 34.7°F1.5°C 22% 2.2 mph SW3.5 kmh SW 3.4 mph5.5 kmh 29.40 in995.6 mb 0.00 in0.0 mm 0.00 in0.0 mm 0.00 in0.0 mm
04:39 PM 76.5°F24.7°C 37.0°F2.8°C 24% 0.2 mph SW0.3 kmh SW 1.1 mph1.8 kmh 29.41 in995.9 mb 0.00 in0.0 mm 0.00 in0.0 mm 0.00 in0.0 mm
04:44 PM 75.2°F24.0°C 34.9°F1.6°C 23% 1.6 mph WSW2.6 kmh WSW 2.2 mph3.5 kmh 29.40 in995.6 mb 0.00 in0.0 mm 0.00 in0.0 mm 0.00 in0.0 mm
04:49 PM 74.5°F23.6°C 35.4°F1.9°C 24% Calm Calm -- 29.40 in995.6 mb 0.00 in0.0 mm 0.00 in0.0 mm 0.00 in0.0 mm
04:54 PM 74.5°F23.6°C 33.3°F0.7°C 22% 0.7 mph SSW1.1 kmh SSW 1.1 mph1.8 kmh 29.40 in995.6 mb 0.00 in0.0 mm 0.00 in0.0 mm 0.00 in0.0 mm
04:59 PM 74.1°F23.4°C 36.1°F2.3°C 25% 0.9 mph SW1.4 kmh SW 2.2 mph3.5 kmh 29.40 in995.6 mb 0.00 in0.0 mm 0.00 in0.0 mm 0.00 in0.0 mm
05:04 PM 74.3°F23.5°C 34.2°F1.2°C 23% 1.3 mph SW2.1 kmh SW 2.2 mph3.5 kmh 29.41 in995.9 mb 0.00 in0.0 mm 0.00 in0.0 mm 0.00 in0.0 mm
05:09 PM 74.3°F23.5°C 35.2°F1.8°C 24% 0.7 mph SW1.1 kmh SW 2.2 mph3.5 kmh 29.40 in995.6 mb 0.00 in0.0 mm 0.00 in0.0 mm 0.00 in0.0 mm
05:14 PM 73.9°F23.3°C 36.0°F2.2°C 25% 0.9 mph SW1.4 kmh SW 1.1 mph1.8 kmh 29.40 in995.6 mb 0.00 in0.0 mm 0.00 in0.0 mm 0.00 in0.0 mm
05:19 PM 74.3°F23.5°C 35.2°F1.8°C 24% Calm Calm -- 29.40 in995.6 mb 0.00 in0.0 mm 0.00 in0.0 mm 0.00 in0.0 mm
05:24 PM 73.9°F23.3°C 34.0°F1.1°C 23% 0.7 mph NNW1.1 kmh NNW 1.1 mph1.8 kmh 29.40 in995.6 mb 0.00 in0.0 mm 0.00 in0.0 mm 0.00 in0.0 mm
05:29 PM 73.8°F23.2°C 34.9°F1.6°C 24% Calm Calm -- 29.40 in995.6 mb 0.00 in0.0 mm 0.00 in0.0 mm 0.00 in0.0 mm
05:34 PM 74.5°F23.6°C 34.3°F1.3°C 23% 0.7 mph SW1.1 kmh SW 1.1 mph1.8 kmh 29.40 in995.6 mb 0.00 in0.0 mm 0.00 in0.0 mm 0.00 in0.0 mm
05:39 PM 75.2°F24.0°C 34.9°F1.6°C 23% 0.7 mph SW1.1 kmh SW 2.2 mph3.5 kmh 29.39 in995.3 mb 0.00 in0.0 mm 0.00 in0.0 mm 0.00 in0.0 mm
05:44 PM 75.7°F24.3°C 35.4°F1.9°C 23% 0.9 mph SW1.4 kmh SW 1.1 mph1.8 kmh 29.39 in995.3 mb 0.00 in0.0 mm 0.00 in0.0 mm 0.00 in0.0 mm
05:49 PM 74.8°F23.8°C 34.7°F1.5°C 23% 1.6 mph SW2.6 kmh SW 2.2 mph3.5 kmh 29.39 in995.3 mb 0.00 in0.0 mm 0.00 in0.0 mm 0.00 in0.0 mm
05:54 PM 75.2°F24.0°C 36.0°F2.2°C 24% 2.9 mph SW4.7 kmh SW 3.4 mph5.5 kmh 29.39 in995.3 mb 0.00 in0.0 mm 0.00 in0.0 mm 0.00 in0.0 mm
05:59 PM 74.7°F23.7°C 33.4°F0.8°C 22% 1.3 mph SW2.1 kmh SW 2.2 mph3.5 kmh 29.38 in994.9 mb 0.00 in0.0 mm 0.00 in0.0 mm 0.00 in0.0 mm
06:04 PM 74.8°F23.8°C 32.4°F0.2°C 21% Calm Calm -- 29.38 in994.9 mb 0.00 in0.0 mm 0.00 in0.0 mm 0.00 in0.0 mm
06:09 PM 75.0°F23.9°C 34.9°F1.6°C 23% 0.2 mph SW0.3 kmh SW 1.1 mph1.8 kmh 29.39 in995.3 mb 0.00 in0.0 mm 0.00 in0.0 mm 0.00 in0.0 mm
06:14 PM 75.0°F23.9°C 34.9°F1.6°C 23% 1.1 mph SW1.8 kmh SW 2.2 mph3.5 kmh 29.39 in995.3 mb 0.00 in0.0 mm 0.00 in0.0 mm 0.00 in0.0 mm
06:19 PM 75.4°F24.1°C 35.1°F1.7°C 23% Calm Calm -- 29.39 in995.3 mb 0.00 in0.0 mm 0.00 in0.0 mm 0.00 in0.0 mm
06:24 PM 74.5°F23.6°C 32.0°F0.0°C 21% 1.3 mph NE2.1 kmh NE 2.2 mph3.5 kmh 29.39 in995.3 mb 0.00 in0.0 mm 0.00 in0.0 mm 0.00 in0.0 mm
06:29 PM 74.1°F23.4°C 32.9°F0.5°C 22% 0.2 mph NE0.3 kmh NE 1.1 mph1.8 kmh 29.39 in995.3 mb 0.00 in0.0 mm 0.00 in0.0 mm 0.00 in0.0 mm
06:34 PM 73.6°F23.1°C 35.6°F2.0°C 25% Calm Calm -- 29.39 in995.3 mb 0.00 in0.0 mm 0.00 in0.0 mm 0.00 in0.0 mm
06:39 PM 73.6°F23.1°C 33.6°F0.9°C 23% Calm Calm -- 29.38 in994.9 mb 0.00 in0.0 mm 0.00 in0.0 mm 0.00 in0.0 mm
06:44 PM 73.4°F23.0°C 32.4°F0.2°C 22% 0.7 mph ESE1.1 kmh ESE 1.1 mph1.8 kmh 29.39 in995.3 mb 0.00 in0.0 mm 0.00 in0.0 mm 0.00 in0.0 mm
06:49 PM 73.2°F22.9°C 35.4°F1.9°C 25% Calm Calm -- 29.38 in994.9 mb 0.00 in0.0 mm 0.00 in0.0 mm 0.00 in0.0 mm
06:54 PM 72.9°F22.7°C 35.1°F1.7°C 25% 1.1 mph SW1.8 kmh SW 1.1 mph1.8 kmh 29.39 in995.3 mb 0.00 in0.0 mm 0.00 in0.0 mm 0.00 in0.0 mm
06:59 PM 72.3°F22.4°C 33.6°F0.9°C 24% 1.1 mph SW1.8 kmh SW 1.1 mph1.8 kmh 29.39 in995.3 mb 0.00 in0.0 mm 0.00 in0.0 mm 0.00 in0.0 mm
07:04 PM 71.8°F22.1°C 36.1°F2.3°C 27% Calm Calm -- 29.39 in995.3 mb 0.00 in0.0 mm 0.00 in0.0 mm 0.00 in0.0 mm
07:09 PM 71.4°F21.9°C 34.9°F1.6°C 26% Calm Calm -- 29.39 in995.3 mb 0.00 in0.0 mm 0.00 in0.0 mm 0.00 in0.0 mm
07:14 PM 70.9°F21.6°C 33.4°F0.8°C 25% Calm Calm -- 29.39 in995.3 mb 0.00 in0.0 mm 0.00 in0.0 mm 0.00 in0.0 mm
07:19 PM 70.7°F21.5°C 34.2°F1.2°C 26% Calm Calm -- 29.39 in995.3 mb 0.00 in0.0 mm 0.00 in0.0 mm 0.00 in0.0 mm
07:24 PM 70.2°F21.2°C 33.8°F1.0°C 26% Calm Calm -- 29.39 in995.3 mb 0.00 in0.0 mm 0.00 in0.0 mm 0.00 in0.0 mm
07:29 PM 69.6°F20.9°C 33.3°F0.7°C 26% Calm Calm -- 29.39 in995.3 mb 0.00 in0.0 mm 0.00 in0.0 mm 0.00 in0.0 mm
07:34 PM 68.9°F20.5°C 34.5°F1.4°C 28% Calm Calm -- 29.39 in995.3 mb 0.00 in0.0 mm 0.00 in0.0 mm 0.00 in0.0 mm
07:39 PM 68.2°F20.1°C 34.7°F1.5°C 29% Calm Calm -- 29.39 in995.3 mb 0.00 in0.0 mm 0.00 in0.0 mm 0.00 in0.0 mm
07:44 PM 67.6°F19.8°C 34.3°F1.3°C 29% Calm Calm -- 29.40 in995.6 mb 0.00 in0.0 mm 0.00 in0.0 mm 0.00 in0.0 mm
07:49 PM 67.3°F19.6°C 34.9°F1.6°C 30% Calm Calm -- 29.39 in995.3 mb 0.00 in0.0 mm 0.00 in0.0 mm 0.00 in0.0 mm
07:54 PM 66.7°F19.3°C 35.2°F1.8°C 31% Calm Calm -- 29.39 in995.3 mb 0.00 in0.0 mm 0.00 in0.0 mm 0.00 in0.0 mm
07:59 PM 66.4°F19.1°C 35.6°F2.0°C 32% Calm Calm -- 29.39 in995.3 mb 0.00 in0.0 mm 0.00 in0.0 mm 0.00 in0.0 mm
08:04 PM 65.8°F18.8°C 36.0°F2.2°C 33% Calm Calm -- 29.40 in995.6 mb 0.00 in0.0 mm 0.00 in0.0 mm 0.00 in0.0 mm
08:09 PM 65.3°F18.5°C 35.6°F2.0°C 33% Calm Calm -- 29.39 in995.3 mb 0.00 in0.0 mm 0.00 in0.0 mm 0.00 in0.0 mm
08:14 PM 64.9°F18.3°C 35.2°F1.8°C 33% Calm Calm -- 29.39 in995.3 mb 0.00 in0.0 mm 0.00 in0.0 mm 0.00 in0.0 mm
08:19 PM 64.4°F18.0°C 36.1°F2.3°C 35% Calm Calm -- 29.39 in995.3 mb 0.00 in0.0 mm 0.00 in0.0 mm 0.00 in0.0 mm
08:24 PM 64.2°F17.9°C 35.2°F1.8°C 34% Calm Calm -- 29.39 in995.3 mb 0.00 in0.0 mm 0.00 in0.0 mm 0.00 in0.0 mm
08:29 PM 63.7°F17.6°C 37.0°F2.8°C 37% Calm Calm -- 29.39 in995.3 mb 0.00 in0.0 mm 0.00 in0.0 mm 0.00 in0.0 mm
08:34 PM 63.3°F17.4°C 36.7°F2.6°C 37% Calm Calm -- 29.39 in995.3 mb 0.00 in0.0 mm 0.00 in0.0 mm 0.00 in0.0 mm
08:39 PM 63.0°F17.2°C 35.6°F2.0°C 36% Calm Calm -- 29.39 in995.3 mb 0.00 in0.0 mm 0.00 in0.0 mm 0.00 in0.0 mm
08:44 PM 63.0°F17.2°C 38.3°F3.5°C 40% Calm Calm -- 29.40 in995.6 mb 0.00 in0.0 mm 0.00 in0.0 mm 0.00 in0.0 mm
08:49 PM 62.1°F16.7°C 39.4°F4.1°C 43% Calm Calm -- 29.39 in995.3 mb 0.00 in0.0 mm 0.00 in0.0 mm 0.00 in0.0 mm
08:54 PM 62.6°F17.0°C 39.2°F4.0°C 42% Calm Calm -- 29.39 in995.3 mb 0.00 in0.0 mm 0.00 in0.0 mm 0.00 in0.0 mm
08:59 PM 61.9°F16.6°C 36.7°F2.6°C 39% Calm Calm -- 29.40 in995.6 mb 0.00 in0.0 mm 0.00 in0.0 mm 0.00 in0.0 mm
09:04 PM 62.1°F16.7°C 36.9°F2.7°C 39% Calm Calm -- 29.40 in995.6 mb 0.00 in0.0 mm 0.00 in0.0 mm 0.00 in0.0 mm
09:09 PM 62.1°F16.7°C 36.9°F2.7°C 39% Calm Calm -- 29.40 in995.6 mb 0.00 in0.0 mm 0.00 in0.0 mm 0.00 in0.0 mm
09:14 PM 61.9°F16.6°C 37.4°F3.0°C 40% Calm Calm -- 29.40 in995.6 mb 0.00 in0.0 mm 0.00 in0.0 mm 0.00 in0.0 mm
09:19 PM 61.7°F16.5°C 39.6°F4.2°C 44% Calm Calm -- 29.39 in995.3 mb 0.00 in0.0 mm 0.00 in0.0 mm 0.00 in0.0 mm
09:24 PM 61.3°F16.3°C 38.7°F3.7°C 43% Calm Calm -- 29.40 in995.6 mb 0.00 in0.0 mm 0.00 in0.0 mm 0.00 in0.0 mm
09:29 PM 61.2°F16.2°C 40.3°F4.6°C 46% Calm Calm -- 29.41 in995.9 mb 0.00 in0.0 mm 0.00 in0.0 mm 0.00 in0.0 mm
09:34 PM 60.6°F15.9°C 38.7°F3.7°C 44% Calm Calm -- 29.41 in995.9 mb 0.00 in0.0 mm 0.00 in0.0 mm 0.00 in0.0 mm
09:39 PM 60.4°F15.8°C 38.5°F3.6°C 44% Calm Calm -- 29.40 in995.6 mb 0.00 in0.0 mm 0.00 in0.0 mm 0.00 in0.0 mm
09:44 PM 61.0°F16.1°C 39.0°F3.9°C 44% Calm Calm -- 29.41 in995.9 mb 0.00 in0.0 mm 0.00 in0.0 mm 0.00 in0.0 mm
09:49 PM 61.2°F16.2°C 39.2°F4.0°C 44% Calm Calm -- 29.40 in995.6 mb 0.00 in0.0 mm 0.00 in0.0 mm 0.00 in0.0 mm
09:54 PM 61.2°F16.2°C 38.5°F3.6°C 43% Calm Calm -- 29.41 in995.9 mb 0.00 in0.0 mm 0.00 in0.0 mm 0.00 in0.0 mm
09:59 PM 61.0°F16.1°C 39.6°F4.2°C 45% Calm Calm -- 29.41 in995.9 mb 0.00 in0.0 mm 0.00 in0.0 mm 0.00 in0.0 mm
10:04 PM 60.4°F15.8°C 38.5°F3.6°C 44% Calm Calm -- 29.41 in995.9 mb 0.00 in0.0 mm 0.00 in0.0 mm 0.00 in0.0 mm
10:09 PM 60.4°F15.8°C 39.0°F3.9°C 45% Calm Calm -- 29.41 in995.9 mb 0.00 in0.0 mm 0.00 in0.0 mm 0.00 in0.0 mm
10:14 PM 59.9°F15.5°C 38.5°F3.6°C 45% Calm Calm -- 29.41 in995.9 mb 0.00 in0.0 mm 0.00 in0.0 mm 0.00 in0.0 mm
10:19 PM 59.2°F15.1°C 40.6°F4.8°C 50% Calm Calm -- 29.41 in995.9 mb 0.00 in0.0 mm 0.00 in0.0 mm 0.00 in0.0 mm
10:24 PM 58.8°F14.9°C 39.2°F4.0°C 48% Calm Calm -- 29.42 in996.3 mb 0.00 in0.0 mm 0.00 in0.0 mm 0.00 in0.0 mm
10:29 PM 58.6°F14.8°C 39.0°F3.9°C 48% Calm Calm -- 29.43 in996.6 mb 0.00 in0.0 mm 0.00 in0.0 mm 0.00 in0.0 mm
10:34 PM 59.0°F15.0°C 39.4°F4.1°C 48% Calm Calm -- 29.42 in996.3 mb 0.00 in0.0 mm 0.00 in0.0 mm 0.00 in0.0 mm
10:39 PM 58.8°F14.9°C 39.7°F4.3°C 49% Calm Calm -- 29.42 in996.3 mb 0.00 in0.0 mm 0.00 in0.0 mm 0.00 in0.0 mm
10:44 PM 58.3°F14.6°C 41.2°F5.1°C 53% Calm Calm -- 29.42 in996.3 mb 0.00 in0.0 mm 0.00 in0.0 mm 0.00 in0.0 mm
10:49 PM 57.9°F14.4°C 39.9°F4.4°C 51% Calm Calm -- 29.43 in996.6 mb 0.00 in0.0 mm 0.00 in0.0 mm 0.00 in0.0 mm
10:54 PM 58.1°F14.5°C 39.6°F4.2°C 50% 0.2 mph SW0.3 kmh SW 1.1 mph1.8 kmh 29.43 in996.6 mb 0.00 in0.0 mm 0.00 in0.0 mm 0.00 in0.0 mm
10:59 PM 58.1°F14.5°C 38.5°F3.6°C 48% Calm Calm -- 29.44 in997.0 mb 0.00 in0.0 mm 0.00 in0.0 mm 0.00 in0.0 mm
11:04 PM 58.1°F14.5°C 39.0°F3.9°C 49% Calm Calm -- 29.43 in996.6 mb 0.00 in0.0 mm 0.00 in0.0 mm 0.00 in0.0 mm
11:09 PM 57.9°F14.4°C 39.9°F4.4°C 51% Calm Calm -- 29.43 in996.6 mb 0.00 in0.0 mm 0.00 in0.0 mm 0.00 in0.0 mm
11:14 PM 57.6°F14.2°C 39.6°F4.2°C 51% Calm Calm -- 29.44 in997.0 mb 0.00 in0.0 mm 0.00 in0.0 mm 0.00 in0.0 mm
11:19 PM 57.4°F14.1°C 39.4°F4.1°C 51% Calm Calm -- 29.44 in997.0 mb 0.00 in0.0 mm 0.00 in0.0 mm 0.00 in0.0 mm
11:24 PM 57.6°F14.2°C 39.6°F4.2°C 51% Calm Calm -- 29.43 in996.6 mb 0.00 in0.0 mm 0.00 in0.0 mm 0.00 in0.0 mm
11:29 PM 57.6°F14.2°C 39.6°F4.2°C 51% Calm Calm -- 29.44 in997.0 mb 0.00 in0.0 mm 0.00 in0.0 mm 0.00 in0.0 mm
11:34 PM 57.4°F14.1°C 39.9°F4.4°C 52% Calm Calm -- 29.44 in997.0 mb 0.00 in0.0 mm 0.00 in0.0 mm 0.00 in0.0 mm
11:39 PM 57.2°F14.0°C 39.2°F4.0°C 51% Calm Calm -- 29.44 in997.0 mb 0.00 in0.0 mm 0.00 in0.0 mm 0.00 in0.0 mm
11:44 PM 57.0°F13.9°C 39.0°F3.9°C 51% Calm Calm -- 29.44 in997.0 mb 0.00 in0.0 mm 0.00 in0.0 mm 0.00 in0.0 mm
11:49 PM 57.2°F14.0°C 38.8°F3.8°C 50% Calm Calm -- 29.44 in997.0 mb 0.00 in0.0 mm 0.00 in0.0 mm 0.00 in0.0 mm
11:54 PM 57.2°F14.0°C 38.8°F3.8°C 50% Calm Calm -- 29.44 in997.0 mb 0.00 in0.0 mm 0.00 in0.0 mm 0.00 in0.0 mm